sensor_id;sensor_type;location;lat;lon;timestamp;P1;durP1;ratioP1;P2;durP2;ratioP2
53751;SDS011;41095;53.090;6.692;2023-03-26T00:00:56;13.75;;;4.20;;
53751;SDS011;41095;53.090;6.692;2023-03-26T00:03:21;11.63;;;4.80;;
53751;SDS011;41095;53.090;6.692;2023-03-26T00:05:47;11.27;;;4.90;;
53751;SDS011;41095;53.090;6.692;2023-03-26T00:08:16;13.07;;;4.28;;
53751;SDS011;41095;53.090;6.692;2023-03-26T00:10:42;7.57;;;3.85;;
53751;SDS011;41095;53.090;6.692;2023-03-26T00:13:08;10.02;;;4.00;;
53751;SDS011;41095;53.090;6.692;2023-03-26T00:15:35;10.10;;;4.07;;
53751;SDS011;41095;53.090;6.692;2023-03-26T00:18:01;10.48;;;4.00;;
53751;SDS011;41095;53.090;6.692;2023-03-26T00:20:30;12.10;;;4.22;;
53751;SDS011;41095;53.090;6.692;2023-03-26T00:22:59;16.15;;;5.47;;
53751;SDS011;41095;53.090;6.692;2023-03-26T00:25:27;14.15;;;4.22;;
53751;SDS011;41095;53.090;6.692;2023-03-26T00:27:53;10.98;;;4.00;;
53751;SDS011;41095;53.090;6.692;2023-03-26T00:30:19;10.85;;;4.07;;
53751;SDS011;41095;53.090;6.692;2023-03-26T00:32:45;11.32;;;3.50;;
53751;SDS011;41095;53.090;6.692;2023-03-26T00:35:11;11.43;;;4.00;;
53751;SDS011;41095;53.090;6.692;2023-03-26T00:37:38;12.95;;;3.78;;
53751;SDS011;41095;53.090;6.692;2023-03-26T00:40:07;7.90;;;3.63;;
53751;SDS011;41095;53.090;6.692;2023-03-26T00:42:35;15.43;;;5.05;;
53751;SDS011;41095;53.090;6.692;2023-03-26T00:45:02;11.43;;;4.03;;
53751;SDS011;41095;53.090;6.692;2023-03-26T00:47:31;7.60;;;4.45;;
53751;SDS011;41095;53.090;6.692;2023-03-26T00:49:58;13.77;;;3.70;;
53751;SDS011;41095;53.090;6.692;2023-03-26T00:52:24;10.32;;;4.03;;
53751;SDS011;41095;53.090;6.692;2023-03-26T00:54:52;8.02;;;4.15;;
53751;SDS011;41095;53.090;6.692;2023-03-26T00:57:19;9.93;;;3.67;;
53751;SDS011;41095;53.090;6.692;2023-03-26T00:59:46;12.88;;;5.05;;
53751;SDS011;41095;53.090;6.692;2023-03-26T01:02:13;13.07;;;5.70;;
53751;SDS011;41095;53.090;6.692;2023-03-26T01:04:55;11.03;;;4.33;;
53751;SDS011;41095;53.090;6.692;2023-03-26T01:07:26;14.63;;;4.50;;
53751;SDS011;41095;53.090;6.692;2023-03-26T01:09:54;10.40;;;4.30;;
53751;SDS011;41095;53.090;6.692;2023-03-26T01:12:24;8.15;;;4.30;;
53751;SDS011;41095;53.090;6.692;2023-03-26T01:14:53;15.48;;;5.95;;
53751;SDS011;41095;53.090;6.692;2023-03-26T01:17:24;9.25;;;3.80;;
53751;SDS011;41095;53.090;6.692;2023-03-26T01:22:48;13.57;;;4.80;;
53751;SDS011;41095;53.090;6.692;2023-03-26T01:25:18;14.30;;;3.50;;
53751;SDS011;41095;53.090;6.692;2023-03-26T01:27:53;13.93;;;3.97;;
53751;SDS011;41095;53.090;6.692;2023-03-26T01:35:50;14.77;;;4.50;;
53751;SDS011;41095;53.090;6.692;2023-03-26T01:38:23;8.05;;;4.00;;
53751;SDS011;41095;53.090;6.692;2023-03-26T01:46:00;7.22;;;3.20;;
53751;SDS011;41095;53.090;6.692;2023-03-26T01:48:30;17.02;;;4.43;;
53751;SDS011;41095;53.090;6.692;2023-03-26T01:51:02;16.45;;;5.25;;
53751;SDS011;41095;53.090;6.692;2023-03-26T01:53:28;11.38;;;4.25;;
53751;SDS011;41095;53.090;6.692;2023-03-26T02:03:43;11.77;;;4.30;;
53751;SDS011;41095;53.090;6.692;2023-03-26T02:09:02;11.60;;;4.47;;
53751;SDS011;41095;53.090;6.692;2023-03-26T02:11:33;11.52;;;4.10;;
53751;SDS011;41095;53.090;6.692;2023-03-26T02:14:02;15.25;;;4.70;;
53751;SDS011;41095;53.090;6.692;2023-03-26T02:16:29;9.60;;;3.90;;
53751;SDS011;41095;53.090;6.692;2023-03-26T02:18:55;10.85;;;3.72;;
53751;SDS011;41095;53.090;6.692;2023-03-26T02:21:23;12.80;;;5.20;;
53751;SDS011;41095;53.090;6.692;2023-03-26T02:23:54;5.88;;;3.33;;
53751;SDS011;41095;53.090;6.692;2023-03-26T02:26:28;8.95;;;4.30;;
53751;SDS011;41095;53.090;6.692;2023-03-26T02:28:56;11.55;;;4.65;;
53751;SDS011;41095;53.090;6.692;2023-03-26T02:31:22;8.48;;;3.83;;
53751;SDS011;41095;53.090;6.692;2023-03-26T02:33:50;16.30;;;5.45;;
53751;SDS011;41095;53.090;6.692;2023-03-26T02:36:16;9.70;;;4.30;;
53751;SDS011;41095;53.090;6.692;2023-03-26T02:38:48;10.75;;;4.55;;
53751;SDS011;41095;53.090;6.692;2023-03-26T02:41:15;12.43;;;4.38;;
53751;SDS011;41095;53.090;6.692;2023-03-26T02:43:41;13.73;;;4.70;;
53751;SDS011;41095;53.090;6.692;2023-03-26T02:46:07;10.18;;;4.45;;
53751;SDS011;41095;53.090;6.692;2023-03-26T02:48:33;14.30;;;4.72;;
53751;SDS011;41095;53.090;6.692;2023-03-26T02:50:59;14.52;;;4.47;;
53751;SDS011;41095;53.090;6.692;2023-03-26T02:53:25;11.32;;;4.22;;
53751;SDS011;41095;53.090;6.692;2023-03-26T02:55:55;11.20;;;4.35;;
53751;SDS011;41095;53.090;6.692;2023-03-26T02:58:21;9.02;;;4.05;;
53751;SDS011;41095;53.090;6.692;2023-03-26T03:00:49;11.68;;;5.50;;
53751;SDS011;41095;53.090;6.692;2023-03-26T03:03:21;20.17;;;5.20;;
53751;SDS011;41095;53.090;6.692;2023-03-26T03:05:52;14.27;;;5.28;;
53751;SDS011;41095;53.090;6.692;2023-03-26T03:08:19;11.63;;;4.47;;
53751;SDS011;41095;53.090;6.692;2023-03-26T03:10:59;13.88;;;4.93;;
53751;SDS011;41095;53.090;6.692;2023-03-26T03:13:33;17.40;;;4.82;;
53751;SDS011;41095;53.090;6.692;2023-03-26T03:15:58;7.85;;;4.15;;
53751;SDS011;41095;53.090;6.692;2023-03-26T03:18:24;8.85;;;5.25;;
53751;SDS011;41095;53.090;6.692;2023-03-26T03:20:50;12.02;;;4.60;;
53751;SDS011;41095;53.090;6.692;2023-03-26T03:23:17;16.83;;;4.13;;
53751;SDS011;41095;53.090;6.692;2023-03-26T03:25:43;11.73;;;4.55;;
53751;SDS011;41095;53.090;6.692;2023-03-26T03:28:09;16.58;;;5.50;;
53751;SDS011;41095;53.090;6.692;2023-03-26T03:30:35;9.60;;;4.25;;
53751;SDS011;41095;53.090;6.692;2023-03-26T03:33:01;13.43;;;4.43;;
53751;SDS011;41095;53.090;6.692;2023-03-26T03:35:28;8.55;;;4.13;;
53751;SDS011;41095;53.090;6.692;2023-03-26T03:37:55;12.43;;;4.35;;
53751;SDS011;41095;53.090;6.692;2023-03-26T03:40:21;20.17;;;5.82;;
53751;SDS011;41095;53.090;6.692;2023-03-26T03:42:46;14.75;;;4.97;;
53751;SDS011;41095;53.090;6.692;2023-03-26T03:45:12;13.48;;;4.50;;
53751;SDS011;41095;53.090;6.692;2023-03-26T03:47:38;15.95;;;5.20;;
53751;SDS011;41095;53.090;6.692;2023-03-26T03:50:04;13.32;;;4.53;;
53751;SDS011;41095;53.090;6.692;2023-03-26T03:52:30;13.15;;;4.93;;
53751;SDS011;41095;53.090;6.692;2023-03-26T03:54:56;15.88;;;4.60;;
53751;SDS011;41095;53.090;6.692;2023-03-26T03:57:24;16.60;;;5.30;;
53751;SDS011;41095;53.090;6.692;2023-03-26T03:59:51;12.98;;;4.85;;
53751;SDS011;41095;53.090;6.692;2023-03-26T04:02:17;18.55;;;5.53;;
53751;SDS011;41095;53.090;6.692;2023-03-26T04:04:53;18.08;;;4.97;;
53751;SDS011;41095;53.090;6.692;2023-03-26T04:07:21;14.88;;;5.93;;
53751;SDS011;41095;53.090;6.692;2023-03-26T04:09:48;15.15;;;4.72;;
53751;SDS011;41095;53.090;6.692;2023-03-26T04:12:14;16.70;;;5.20;;
53751;SDS011;41095;53.090;6.692;2023-03-26T04:14:40;16.65;;;5.60;;
53751;SDS011;41095;53.090;6.692;2023-03-26T04:17:06;17.27;;;5.30;;
53751;SDS011;41095;53.090;6.692;2023-03-26T04:19:32;12.73;;;4.85;;
53751;SDS011;41095;53.090;6.692;2023-03-26T04:21:57;13.63;;;4.93;;
53751;SDS011;41095;53.090;6.692;2023-03-26T04:24:29;20.98;;;5.75;;
53751;SDS011;41095;53.090;6.692;2023-03-26T04:27:02;13.20;;;5.20;;
53751;SDS011;41095;53.090;6.692;2023-03-26T04:29:30;15.07;;;5.18;;
53751;SDS011;41095;53.090;6.692;2023-03-26T04:32:02;18.40;;;6.15;;
53751;SDS011;41095;53.090;6.692;2023-03-26T04:34:30;14.60;;;5.63;;
53751;SDS011;41095;53.090;6.692;2023-03-26T04:36:59;15.93;;;4.30;;
53751;SDS011;41095;53.090;6.692;2023-03-26T04:39:25;15.32;;;4.65;;
53751;SDS011;41095;53.090;6.692;2023-03-26T04:41:55;16.88;;;4.75;;
53751;SDS011;41095;53.090;6.692;2023-03-26T04:44:21;10.63;;;3.97;;
53751;SDS011;41095;53.090;6.692;2023-03-26T04:46:48;18.10;;;6.30;;
53751;SDS011;41095;53.090;6.692;2023-03-26T04:49:14;14.02;;;5.15;;
53751;SDS011;41095;53.090;6.692;2023-03-26T04:51:39;10.93;;;4.50;;
53751;SDS011;41095;53.090;6.692;2023-03-26T04:54:06;17.98;;;5.30;;
53751;SDS011;41095;53.090;6.692;2023-03-26T04:56:56;12.60;;;4.65;;
53751;SDS011;41095;53.090;6.692;2023-03-26T04:59:32;12.88;;;4.80;;
53751;SDS011;41095;53.090;6.692;2023-03-26T05:01:59;19.02;;;5.60;;
53751;SDS011;41095;53.090;6.692;2023-03-26T05:04:29;16.42;;;6.47;;
53751;SDS011;41095;53.090;6.692;2023-03-26T05:06:56;11.85;;;4.68;;
53751;SDS011;41095;53.090;6.692;2023-03-26T05:09:25;13.07;;;5.82;;
53751;SDS011;41095;53.090;6.692;2023-03-26T05:11:51;12.85;;;4.40;;
53751;SDS011;41095;53.090;6.692;2023-03-26T05:14:17;29.75;;;5.43;;
53751;SDS011;41095;53.090;6.692;2023-03-26T05:16:44;8.82;;;4.00;;
53751;SDS011;41095;53.090;6.692;2023-03-26T05:19:12;16.27;;;4.93;;
53751;SDS011;41095;53.090;6.692;2023-03-26T05:21:38;15.98;;;5.40;;
53751;SDS011;41095;53.090;6.692;2023-03-26T05:24:04;14.18;;;4.75;;
53751;SDS011;41095;53.090;6.692;2023-03-26T05:26:34;12.73;;;5.38;;
53751;SDS011;41095;53.090;6.692;2023-03-26T05:29:00;16.05;;;5.22;;
53751;SDS011;41095;53.090;6.692;2023-03-26T05:31:27;15.57;;;5.00;;
53751;SDS011;41095;53.090;6.692;2023-03-26T05:33:55;16.95;;;5.35;;
53751;SDS011;41095;53.090;6.692;2023-03-26T05:36:21;11.43;;;5.47;;
53751;SDS011;41095;53.090;6.692;2023-03-26T05:38:48;14.63;;;5.43;;
53751;SDS011;41095;53.090;6.692;2023-03-26T05:41:14;14.35;;;4.90;;
53751;SDS011;41095;53.090;6.692;2023-03-26T05:43:41;12.23;;;4.57;;
53751;SDS011;41095;53.090;6.692;2023-03-26T05:46:09;13.15;;;5.18;;
53751;SDS011;41095;53.090;6.692;2023-03-26T05:48:35;7.97;;;4.35;;
53751;SDS011;41095;53.090;6.692;2023-03-26T05:51:02;17.80;;;4.55;;
53751;SDS011;41095;53.090;6.692;2023-03-26T05:53:28;19.58;;;4.80;;
53751;SDS011;41095;53.090;6.692;2023-03-26T05:55:54;16.35;;;5.32;;
53751;SDS011;41095;53.090;6.692;2023-03-26T05:58:26;11.40;;;5.57;;
53751;SDS011;41095;53.090;6.692;2023-03-26T06:00:57;16.45;;;5.35;;
53751;SDS011;41095;53.090;6.692;2023-03-26T06:03:36;14.70;;;4.68;;
53751;SDS011;41095;53.090;6.692;2023-03-26T06:06:14;17.02;;;5.25;;
53751;SDS011;41095;53.090;6.692;2023-03-26T06:08:47;14.27;;;5.47;;
53751;SDS011;41095;53.090;6.692;2023-03-26T06:11:15;13.90;;;4.13;;
53751;SDS011;41095;53.090;6.692;2023-03-26T06:13:42;11.75;;;5.20;;
53751;SDS011;41095;53.090;6.692;2023-03-26T06:16:09;16.05;;;5.18;;
53751;SDS011;41095;53.090;6.692;2023-03-26T06:18:37;13.45;;;4.53;;
53751;SDS011;41095;53.090;6.692;2023-03-26T06:21:03;14.63;;;4.25;;
53751;SDS011;41095;53.090;6.692;2023-03-26T06:23:30;13.20;;;5.25;;
53751;SDS011;41095;53.090;6.692;2023-03-26T06:25:56;15.13;;;4.70;;
53751;SDS011;41095;53.090;6.692;2023-03-26T06:28:22;15.15;;;5.03;;
53751;SDS011;41095;53.090;6.692;2023-03-26T06:30:48;15.82;;;4.32;;
53751;SDS011;41095;53.090;6.692;2023-03-26T06:33:15;11.23;;;4.63;;
53751;SDS011;41095;53.090;6.692;2023-03-26T06:35:42;13.32;;;4.53;;
53751;SDS011;41095;53.090;6.692;2023-03-26T06:38:09;14.43;;;5.20;;
53751;SDS011;41095;53.090;6.692;2023-03-26T06:40:35;13.13;;;4.45;;
53751;SDS011;41095;53.090;6.692;2023-03-26T06:43:02;16.20;;;5.88;;
53751;SDS011;41095;53.090;6.692;2023-03-26T06:45:28;16.52;;;4.78;;
53751;SDS011;41095;53.090;6.692;2023-03-26T06:47:54;17.60;;;4.60;;
53751;SDS011;41095;53.090;6.692;2023-03-26T06:50:20;15.02;;;5.30;;
53751;SDS011;41095;53.090;6.692;2023-03-26T06:52:45;14.90;;;5.15;;
53751;SDS011;41095;53.090;6.692;2023-03-26T06:55:11;12.73;;;4.60;;
53751;SDS011;41095;53.090;6.692;2023-03-26T06:57:37;9.90;;;4.72;;
53751;SDS011;41095;53.090;6.692;2023-03-26T07:00:03;10.65;;;5.20;;
53751;SDS011;41095;53.090;6.692;2023-03-26T07:02:30;12.77;;;4.50;;
53751;SDS011;41095;53.090;6.692;2023-03-26T07:04:56;11.35;;;4.15;;
53751;SDS011;41095;53.090;6.692;2023-03-26T07:07:22;12.35;;;5.85;;
53751;SDS011;41095;53.090;6.692;2023-03-26T07:09:48;16.63;;;5.78;;
53751;SDS011;41095;53.090;6.692;2023-03-26T07:12:15;16.45;;;5.03;;
53751;SDS011;41095;53.090;6.692;2023-03-26T07:14:41;12.95;;;4.97;;
53751;SDS011;41095;53.090;6.692;2023-03-26T07:17:06;14.40;;;4.90;;
53751;SDS011;41095;53.090;6.692;2023-03-26T07:19:32;12.35;;;4.65;;
53751;SDS011;41095;53.090;6.692;2023-03-26T07:21:58;14.60;;;4.95;;
53751;SDS011;41095;53.090;6.692;2023-03-26T07:24:25;11.77;;;4.25;;
53751;SDS011;41095;53.090;6.692;2023-03-26T07:41:27;14.55;;;4.38;;
53751;SDS011;41095;53.090;6.692;2023-03-26T07:44:29;11.30;;;4.20;;
53751;SDS011;41095;53.090;6.692;2023-03-26T07:46:57;12.85;;;4.18;;
53751;SDS011;41095;53.090;6.692;2023-03-26T07:49:25;11.70;;;3.85;;
53751;SDS011;41095;53.090;6.692;2023-03-26T07:51:53;13.60;;;3.60;;
53751;SDS011;41095;53.090;6.692;2023-03-26T07:54:19;14.70;;;4.28;;
53751;SDS011;41095;53.090;6.692;2023-03-26T07:56:50;16.25;;;4.55;;
53751;SDS011;41095;53.090;6.692;2023-03-26T08:10:00;8.68;;;3.55;;
53751;SDS011;41095;53.090;6.692;2023-03-26T08:15:40;13.10;;;4.23;;
53751;SDS011;41095;53.090;6.692;2023-03-26T08:18:36;15.52;;;3.90;;
53751;SDS011;41095;53.090;6.692;2023-03-26T08:21:10;13.68;;;4.22;;
53751;SDS011;41095;53.090;6.692;2023-03-26T08:29:30;9.82;;;4.07;;
53751;SDS011;41095;53.090;6.692;2023-03-26T08:32:16;8.55;;;3.88;;
53751;SDS011;41095;53.090;6.692;2023-03-26T08:34:44;7.05;;;3.63;;
53751;SDS011;41095;53.090;6.692;2023-03-26T08:37:10;7.75;;;3.83;;
53751;SDS011;41095;53.090;6.692;2023-03-26T08:39:36;12.10;;;3.60;;
53751;SDS011;41095;53.090;6.692;2023-03-26T08:50:23;11.98;;;3.17;;
53751;SDS011;41095;53.090;6.692;2023-03-26T08:55:42;6.22;;;2.90;;
53751;SDS011;41095;53.090;6.692;2023-03-26T09:06:32;9.38;;;3.65;;
53751;SDS011;41095;53.090;6.692;2023-03-26T09:09:10;6.75;;;2.72;;
53751;SDS011;41095;53.090;6.692;2023-03-26T09:42:45;10.05;;;3.35;;
53751;SDS011;41095;53.090;6.692;2023-03-26T10:01:10;11.68;;;3.90;;
53751;SDS011;41095;53.090;6.692;2023-03-26T10:07:12;8.40;;;3.20;;
53751;SDS011;41095;53.090;6.692;2023-03-26T10:09:47;9.38;;;3.20;;
53751;SDS011;41095;53.090;6.692;2023-03-26T10:12:27;8.10;;;3.90;;
53751;SDS011;41095;53.090;6.692;2023-03-26T10:15:02;9.23;;;3.30;;
53751;SDS011;41095;53.090;6.692;2023-03-26T10:18:01;7.45;;;3.05;;
53751;SDS011;41095;53.090;6.692;2023-03-26T10:29:07;11.65;;;4.50;;
53751;SDS011;41095;53.090;6.692;2023-03-26T10:45:29;12.98;;;3.63;;
53751;SDS011;41095;53.090;6.692;2023-03-26T10:51:13;14.15;;;4.25;;
53751;SDS011;41095;53.090;6.692;2023-03-26T10:53:46;12.15;;;4.53;;
53751;SDS011;41095;53.090;6.692;2023-03-26T10:58:47;8.05;;;3.45;;
53751;SDS011;41095;53.090;6.692;2023-03-26T11:01:19;8.02;;;4.07;;
53751;SDS011;41095;53.090;6.692;2023-03-26T11:04:22;10.40;;;3.80;;
53751;SDS011;41095;53.090;6.692;2023-03-26T11:14:56;11.05;;;3.35;;
53751;SDS011;41095;53.090;6.692;2023-03-26T11:20:31;9.68;;;3.67;;
53751;SDS011;41095;53.090;6.692;2023-03-26T11:23:36;8.60;;;2.97;;
53751;SDS011;41095;53.090;6.692;2023-03-26T11:26:12;10.20;;;3.67;;
53751;SDS011;41095;53.090;6.692;2023-03-26T11:31:35;8.15;;;3.17;;
53751;SDS011;41095;53.090;6.692;2023-03-26T11:34:13;10.18;;;3.20;;
53751;SDS011;41095;53.090;6.692;2023-03-26T11:36:51;7.88;;;3.22;;
53751;SDS011;41095;53.090;6.692;2023-03-26T11:39:22;11.38;;;3.88;;
53751;SDS011;41095;53.090;6.692;2023-03-26T11:41:51;11.15;;;4.60;;
53751;SDS011;41095;53.090;6.692;2023-03-26T11:44:43;4.88;;;3.00;;
53751;SDS011;41095;53.090;6.692;2023-03-26T11:47:14;8.63;;;3.75;;
53751;SDS011;41095;53.090;6.692;2023-03-26T11:49:47;10.18;;;3.45;;
53751;SDS011;41095;53.090;6.692;2023-03-26T11:52:17;8.00;;;2.90;;
53751;SDS011;41095;53.090;6.692;2023-03-26T11:54:42;10.18;;;4.20;;
53751;SDS011;41095;53.090;6.692;2023-03-26T11:57:13;10.30;;;3.67;;
53751;SDS011;41095;53.090;6.692;2023-03-26T12:05:12;9.13;;;2.80;;
53751;SDS011;41095;53.090;6.692;2023-03-26T12:07:45;10.20;;;3.22;;
53751;SDS011;41095;53.090;6.692;2023-03-26T12:13:04;10.68;;;3.75;;
53751;SDS011;41095;53.090;6.692;2023-03-26T12:15:46;11.82;;;3.13;;
53751;SDS011;41095;53.090;6.692;2023-03-26T12:18:25;7.55;;;3.17;;
53751;SDS011;41095;53.090;6.692;2023-03-26T12:21:00;7.53;;;2.80;;
53751;SDS011;41095;53.090;6.692;2023-03-26T12:26:44;10.05;;;3.42;;
53751;SDS011;41095;53.090;6.692;2023-03-26T12:29:11;10.57;;;3.22;;
53751;SDS011;41095;53.090;6.692;2023-03-26T12:34:38;11.18;;;2.65;;
53751;SDS011;41095;53.090;6.692;2023-03-26T12:37:04;8.75;;;2.90;;
53751;SDS011;41095;53.090;6.692;2023-03-26T12:39:33;6.70;;;2.92;;
53751;SDS011;41095;53.090;6.692;2023-03-26T12:42:03;9.15;;;2.95;;
53751;SDS011;41095;53.090;6.692;2023-03-26T12:44:49;6.80;;;2.75;;
53751;SDS011;41095;53.090;6.692;2023-03-26T12:47:20;9.30;;;3.17;;
53751;SDS011;41095;53.090;6.692;2023-03-26T12:49:51;4.55;;;2.58;;
53751;SDS011;41095;53.090;6.692;2023-03-26T12:54:58;10.15;;;3.67;;
53751;SDS011;41095;53.090;6.692;2023-03-26T12:57:30;7.75;;;2.83;;
53751;SDS011;41095;53.090;6.692;2023-03-26T13:11:54;6.60;;;2.70;;
53751;SDS011;41095;53.090;6.692;2023-03-26T13:19:40;8.07;;;3.47;;
53751;SDS011;41095;53.090;6.692;2023-03-26T13:22:36;8.95;;;3.17;;
53751;SDS011;41095;53.090;6.692;2023-03-26T13:36:21;10.50;;;3.63;;
53751;SDS011;41095;53.090;6.692;2023-03-26T13:45:10;6.43;;;2.67;;
53751;SDS011;41095;53.090;6.692;2023-03-26T13:47:49;9.32;;;3.05;;
53751;SDS011;41095;53.090;6.692;2023-03-26T13:50:25;8.00;;;3.13;;
53751;SDS011;41095;53.090;6.692;2023-03-26T13:53:08;7.60;;;3.38;;
53751;SDS011;41095;53.090;6.692;2023-03-26T13:55:55;5.90;;;2.72;;
53751;SDS011;41095;53.090;6.692;2023-03-26T13:58:42;8.13;;;2.42;;
53751;SDS011;41095;53.090;6.692;2023-03-26T14:01:14;8.55;;;2.63;;
53751;SDS011;41095;53.090;6.692;2023-03-26T14:08:56;7.07;;;3.17;;
53751;SDS011;41095;53.090;6.692;2023-03-26T14:12:10;13.80;;;3.20;;
53751;SDS011;41095;53.090;6.692;2023-03-26T14:14:17;6.75;;;3.47;;
53751;SDS011;41095;53.090;6.692;2023-03-26T14:16:52;8.95;;;3.10;;
53751;SDS011;41095;53.090;6.692;2023-03-26T14:44:26;10.35;;;3.35;;
53751;SDS011;41095;53.090;6.692;2023-03-26T14:47:20;10.77;;;3.40;;
53751;SDS011;41095;53.090;6.692;2023-03-26T14:52:49;13.98;;;3.85;;
53751;SDS011;41095;53.090;6.692;2023-03-26T15:01:03;7.25;;;3.00;;
53751;SDS011;41095;53.090;6.692;2023-03-26T15:12:25;4.75;;;2.35;;
53751;SDS011;41095;53.090;6.692;2023-03-26T15:31:25;12.35;;;5.00;;
53751;SDS011;41095;53.090;6.692;2023-03-26T15:34:39;7.10;;;3.63;;
53751;SDS011;41095;53.090;6.692;2023-03-26T15:40:44;6.72;;;2.88;;
53751;SDS011;41095;53.090;6.692;2023-03-26T15:43:15;9.52;;;3.00;;
53751;SDS011;41095;53.090;6.692;2023-03-26T15:48:35;7.38;;;3.13;;
53751;SDS011;41095;53.090;6.692;2023-03-26T15:51:27;7.75;;;3.40;;
53751;SDS011;41095;53.090;6.692;2023-03-26T16:02:45;6.28;;;2.53;;
53751;SDS011;41095;53.090;6.692;2023-03-26T16:10:55;5.80;;;3.33;;
53751;SDS011;41095;53.090;6.692;2023-03-26T16:26:46;8.88;;;2.92;;
53751;SDS011;41095;53.090;6.692;2023-03-26T16:29:27;8.15;;;3.70;;
53751;SDS011;41095;53.090;6.692;2023-03-26T16:34:24;13.85;;;4.30;;
53751;SDS011;41095;53.090;6.692;2023-03-26T16:37:00;6.18;;;3.58;;
53751;SDS011;41095;53.090;6.692;2023-03-26T16:44:43;9.27;;;3.50;;
53751;SDS011;41095;53.090;6.692;2023-03-26T16:47:40;6.78;;;3.28;;
53751;SDS011;41095;53.090;6.692;2023-03-26T16:53:25;17.85;;;3.75;;
53751;SDS011;41095;53.090;6.692;2023-03-26T16:58:58;14.00;;;3.90;;
53751;SDS011;41095;53.090;6.692;2023-03-26T17:04:18;5.28;;;3.13;;
53751;SDS011;41095;53.090;6.692;2023-03-26T17:10:24;7.40;;;2.60;;
53751;SDS011;41095;53.090;6.692;2023-03-26T17:15:29;15.23;;;3.45;;
53751;SDS011;41095;53.090;6.692;2023-03-26T17:26:22;12.43;;;2.75;;
53751;SDS011;41095;53.090;6.692;2023-03-26T17:31:34;12.13;;;3.55;;
53751;SDS011;41095;53.090;6.692;2023-03-26T17:37:07;6.93;;;3.38;;
53751;SDS011;41095;53.090;6.692;2023-03-26T17:44:40;5.90;;;3.53;;
53751;SDS011;41095;53.090;6.692;2023-03-26T17:53:26;8.73;;;3.00;;
53751;SDS011;41095;53.090;6.692;2023-03-26T17:55:58;7.18;;;3.55;;
53751;SDS011;41095;53.090;6.692;2023-03-26T17:58:28;10.55;;;3.15;;
53751;SDS011;41095;53.090;6.692;2023-03-26T18:01:06;7.82;;;3.10;;
53751;SDS011;41095;53.090;6.692;2023-03-26T18:03:53;8.55;;;3.40;;
53751;SDS011;41095;53.090;6.692;2023-03-26T18:17:42;6.20;;;3.35;;
53751;SDS011;41095;53.090;6.692;2023-03-26T18:20:21;9.75;;;3.38;;
53751;SDS011;41095;53.090;6.692;2023-03-26T18:22:49;8.63;;;3.58;;
53751;SDS011;41095;53.090;6.692;2023-03-26T18:25:33;9.55;;;3.70;;
53751;SDS011;41095;53.090;6.692;2023-03-26T18:28:00;8.63;;;2.92;;
53751;SDS011;41095;53.090;6.692;2023-03-26T18:30:26;9.93;;;3.53;;
53751;SDS011;41095;53.090;6.692;2023-03-26T18:32:58;10.70;;;3.05;;
53751;SDS011;41095;53.090;6.692;2023-03-26T18:35:26;7.45;;;3.35;;
53751;SDS011;41095;53.090;6.692;2023-03-26T18:38:04;10.38;;;3.33;;
53751;SDS011;41095;53.090;6.692;2023-03-26T18:40:34;8.93;;;2.90;;
53751;SDS011;41095;53.090;6.692;2023-03-26T18:43:10;8.27;;;3.10;;
53751;SDS011;41095;53.090;6.692;2023-03-26T18:45:45;8.32;;;3.03;;
53751;SDS011;41095;53.090;6.692;2023-03-26T18:48:16;8.27;;;3.05;;
53751;SDS011;41095;53.090;6.692;2023-03-26T18:50:45;9.55;;;3.47;;
53751;SDS011;41095;53.090;6.692;2023-03-26T18:53:38;6.18;;;2.47;;
53751;SDS011;41095;53.090;6.692;2023-03-26T18:56:27;8.98;;;3.08;;
53751;SDS011;41095;53.090;6.692;2023-03-26T18:58:57;6.40;;;3.05;;
53751;SDS011;41095;53.090;6.692;2023-03-26T19:01:27;7.85;;;2.75;;
53751;SDS011;41095;53.090;6.692;2023-03-26T19:03:59;11.20;;;3.00;;
53751;SDS011;41095;53.090;6.692;2023-03-26T19:06:29;8.80;;;2.85;;
53751;SDS011;41095;53.090;6.692;2023-03-26T19:09:05;13.88;;;3.05;;
53751;SDS011;41095;53.090;6.692;2023-03-26T19:11:37;6.93;;;3.22;;
53751;SDS011;41095;53.090;6.692;2023-03-26T19:14:06;12.32;;;3.38;;
53751;SDS011;41095;53.090;6.692;2023-03-26T19:16:38;8.63;;;3.20;;
53751;SDS011;41095;53.090;6.692;2023-03-26T19:19:07;7.10;;;3.00;;
53751;SDS011;41095;53.090;6.692;2023-03-26T19:21:34;6.53;;;2.88;;
53751;SDS011;41095;53.090;6.692;2023-03-26T19:24:00;5.75;;;3.25;;
53751;SDS011;41095;53.090;6.692;2023-03-26T19:26:28;4.28;;;3.22;;
53751;SDS011;41095;53.090;6.692;2023-03-26T19:28:54;6.00;;;3.38;;
53751;SDS011;41095;53.090;6.692;2023-03-26T19:31:22;4.72;;;2.55;;
53751;SDS011;41095;53.090;6.692;2023-03-26T19:33:59;5.13;;;2.70;;
53751;SDS011;41095;53.090;6.692;2023-03-26T19:36:28;7.65;;;3.20;;
53751;SDS011;41095;53.090;6.692;2023-03-26T19:44:03;7.43;;;3.13;;
53751;SDS011;41095;53.090;6.692;2023-03-26T19:46:42;15.20;;;4.22;;
53751;SDS011;41095;53.090;6.692;2023-03-26T19:49:25;7.10;;;3.00;;
53751;SDS011;41095;53.090;6.692;2023-03-26T19:52:01;10.05;;;3.08;;
53751;SDS011;41095;53.090;6.692;2023-03-26T19:54:28;8.23;;;4.60;;
53751;SDS011;41095;53.090;6.692;2023-03-26T19:56:55;6.15;;;3.20;;
53751;SDS011;41095;53.090;6.692;2023-03-26T19:59:20;8.38;;;4.07;;
53751;SDS011;41095;53.090;6.692;2023-03-26T20:01:46;8.00;;;3.55;;
53751;SDS011;41095;53.090;6.692;2023-03-26T20:04:12;9.18;;;3.40;;
53751;SDS011;41095;53.090;6.692;2023-03-26T20:06:38;10.48;;;3.45;;
53751;SDS011;41095;53.090;6.692;2023-03-26T20:09:04;6.68;;;3.30;;
53751;SDS011;41095;53.090;6.692;2023-03-26T20:11:31;6.45;;;2.78;;
53751;SDS011;41095;53.090;6.692;2023-03-26T20:14:00;6.00;;;2.75;;
53751;SDS011;41095;53.090;6.692;2023-03-26T20:16:27;8.52;;;2.75;;
53751;SDS011;41095;53.090;6.692;2023-03-26T20:18:57;7.07;;;2.38;;
53751;SDS011;41095;53.090;6.692;2023-03-26T20:21:26;4.72;;;2.83;;
53751;SDS011;41095;53.090;6.692;2023-03-26T20:23:53;11.98;;;3.35;;
53751;SDS011;41095;53.090;6.692;2023-03-26T20:26:19;4.72;;;2.80;;
53751;SDS011;41095;53.090;6.692;2023-03-26T20:28:46;9.20;;;3.97;;
53751;SDS011;41095;53.090;6.692;2023-03-26T20:31:13;8.40;;;2.80;;
53751;SDS011;41095;53.090;6.692;2023-03-26T20:33:41;7.53;;;3.38;;
53751;SDS011;41095;53.090;6.692;2023-03-26T20:36:10;6.65;;;3.13;;
53751;SDS011;41095;53.090;6.692;2023-03-26T20:38:40;9.07;;;3.10;;
53751;SDS011;41095;53.090;6.692;2023-03-26T20:41:14;8.93;;;2.85;;
53751;SDS011;41095;53.090;6.692;2023-03-26T20:43:42;7.63;;;2.80;;
53751;SDS011;41095;53.090;6.692;2023-03-26T20:46:14;10.52;;;3.22;;
53751;SDS011;41095;53.090;6.692;2023-03-26T20:48:45;5.63;;;2.53;;
53751;SDS011;41095;53.090;6.692;2023-03-26T20:51:11;4.15;;;3.10;;
53751;SDS011;41095;53.090;6.692;2023-03-26T20:53:42;7.63;;;2.75;;
53751;SDS011;41095;53.090;6.692;2023-03-26T20:56:12;6.45;;;3.60;;
53751;SDS011;41095;53.090;6.692;2023-03-26T20:58:39;10.70;;;3.47;;
53751;SDS011;41095;53.090;6.692;2023-03-26T21:01:08;7.07;;;3.10;;
53751;SDS011;41095;53.090;6.692;2023-03-26T21:03:35;6.72;;;3.28;;
53751;SDS011;41095;53.090;6.692;2023-03-26T21:06:01;5.00;;;2.80;;
53751;SDS011;41095;53.090;6.692;2023-03-26T21:08:28;10.90;;;3.75;;
53751;SDS011;41095;53.090;6.692;2023-03-26T21:11:00;7.95;;;3.15;;
53751;SDS011;41095;53.090;6.692;2023-03-26T21:13:35;8.00;;;2.80;;
53751;SDS011;41095;53.090;6.692;2023-03-26T21:16:08;5.68;;;2.65;;
53751;SDS011;41095;53.090;6.692;2023-03-26T21:18:35;6.90;;;2.60;;
53751;SDS011;41095;53.090;6.692;2023-03-26T21:21:04;7.32;;;3.22;;
53751;SDS011;41095;53.090;6.692;2023-03-26T21:23:47;7.53;;;2.83;;
53751;SDS011;41095;53.090;6.692;2023-03-26T21:29:09;6.45;;;3.30;;